sensor_id;sensor_type;location;lat;lon;timestamp;P1;durP1;ratioP1;P2;durP2;ratioP2
1376;SDS011;682;52.502;13.488;2022-10-31T00:02:16;32.00;;;28.50;;
1376;SDS011;682;52.502;13.488;2022-10-31T00:04:43;34.90;;;29.10;;
1376;SDS011;682;52.502;13.488;2022-10-31T00:07:09;34.73;;;29.20;;
1376;SDS011;682;52.502;13.488;2022-10-31T00:09:45;33.03;;;29.43;;
1376;SDS011;682;52.502;13.488;2022-10-31T00:12:11;37.93;;;31.87;;
1376;SDS011;682;52.502;13.488;2022-10-31T00:14:46;37.07;;;30.73;;
1376;SDS011;682;52.502;13.488;2022-10-31T00:17:24;36.47;;;31.17;;
1376;SDS011;682;52.502;13.488;2022-10-31T00:19:52;38.00;;;31.17;;
1376;SDS011;682;52.502;13.488;2022-10-31T00:22:20;38.13;;;32.30;;
1376;SDS011;682;52.502;13.488;2022-10-31T00:24:51;39.00;;;33.53;;
1376;SDS011;682;52.502;13.488;2022-10-31T00:27:22;33.90;;;30.23;;
1376;SDS011;682;52.502;13.488;2022-10-31T00:29:55;37.60;;;31.93;;
1376;SDS011;682;52.502;13.488;2022-10-31T00:32:25;35.60;;;30.97;;
1376;SDS011;682;52.502;13.488;2022-10-31T00:35:04;35.03;;;29.87;;
1376;SDS011;682;52.502;13.488;2022-10-31T00:37:35;34.47;;;29.90;;
1376;SDS011;682;52.502;13.488;2022-10-31T00:40:05;36.80;;;30.47;;
1376;SDS011;682;52.502;13.488;2022-10-31T00:42:35;35.37;;;30.77;;
1376;SDS011;682;52.502;13.488;2022-10-31T00:45:04;38.87;;;32.03;;
1376;SDS011;682;52.502;13.488;2022-10-31T00:47:37;40.87;;;32.33;;
1376;SDS011;682;52.502;13.488;2022-10-31T00:50:13;36.57;;;32.27;;
1376;SDS011;682;52.502;13.488;2022-10-31T00:52:40;38.07;;;31.00;;
1376;SDS011;682;52.502;13.488;2022-10-31T00:55:14;33.90;;;30.30;;
1376;SDS011;682;52.502;13.488;2022-10-31T00:57:41;37.33;;;32.40;;
1376;SDS011;682;52.502;13.488;2022-10-31T01:00:11;36.13;;;31.70;;
1376;SDS011;682;52.502;13.488;2022-10-31T01:02:43;35.17;;;31.00;;
1376;SDS011;682;52.502;13.488;2022-10-31T01:05:10;40.50;;;33.20;;
1376;SDS011;682;52.502;13.488;2022-10-31T01:07:45;34.50;;;30.77;;
1376;SDS011;682;52.502;13.488;2022-10-31T01:10:14;39.90;;;32.60;;
1376;SDS011;682;52.502;13.488;2022-10-31T01:12:46;38.20;;;33.07;;
1376;SDS011;682;52.502;13.488;2022-10-31T01:15:34;40.60;;;34.13;;
1376;SDS011;682;52.502;13.488;2022-10-31T01:18:06;37.70;;;33.37;;
1376;SDS011;682;52.502;13.488;2022-10-31T01:20:33;38.67;;;34.60;;
1376;SDS011;682;52.502;13.488;2022-10-31T01:23:03;41.67;;;36.80;;
1376;SDS011;682;52.502;13.488;2022-10-31T01:25:33;38.57;;;34.10;;
1376;SDS011;682;52.502;13.488;2022-10-31T01:28:03;41.73;;;35.87;;
1376;SDS011;682;52.502;13.488;2022-10-31T01:30:34;40.20;;;35.80;;
1376;SDS011;682;52.502;13.488;2022-10-31T01:33:01;42.23;;;36.50;;
1376;SDS011;682;52.502;13.488;2022-10-31T01:35:28;41.80;;;35.53;;
1376;SDS011;682;52.502;13.488;2022-10-31T01:38:08;39.43;;;35.13;;
1376;SDS011;682;52.502;13.488;2022-10-31T01:54:26;35.40;;;31.60;;
1376;SDS011;682;52.502;13.488;2022-10-31T01:57:05;38.73;;;33.73;;
1376;SDS011;682;52.502;13.488;2022-10-31T01:59:45;37.33;;;32.40;;
1376;SDS011;682;52.502;13.488;2022-10-31T02:02:27;34.60;;;30.87;;
1376;SDS011;682;52.502;13.488;2022-10-31T02:05:07;38.20;;;32.43;;
1376;SDS011;682;52.502;13.488;2022-10-31T02:07:43;37.83;;;33.87;;
1376;SDS011;682;52.502;13.488;2022-10-31T02:10:25;37.50;;;32.60;;
1376;SDS011;682;52.502;13.488;2022-10-31T02:12:57;38.60;;;32.53;;
1376;SDS011;682;52.502;13.488;2022-10-31T02:15:37;38.90;;;32.17;;
1376;SDS011;682;52.502;13.488;2022-10-31T02:18:15;37.17;;;33.00;;
1376;SDS011;682;52.502;13.488;2022-10-31T02:20:46;41.80;;;33.27;;
1376;SDS011;682;52.502;13.488;2022-10-31T02:30:06;36.30;;;31.50;;
1376;SDS011;682;52.502;13.488;2022-10-31T02:32:46;34.80;;;30.70;;
1376;SDS011;682;52.502;13.488;2022-10-31T02:35:37;34.37;;;30.63;;
1376;SDS011;682;52.502;13.488;2022-10-31T02:38:26;38.67;;;31.90;;
1376;SDS011;682;52.502;13.488;2022-10-31T02:41:15;34.17;;;29.70;;
1376;SDS011;682;52.502;13.488;2022-10-31T02:43:58;35.70;;;28.03;;
1376;SDS011;682;52.502;13.488;2022-10-31T02:46:38;32.03;;;28.17;;
1376;SDS011;682;52.502;13.488;2022-10-31T02:49:18;35.20;;;29.23;;
1376;SDS011;682;52.502;13.488;2022-10-31T02:51:56;33.70;;;28.23;;
1376;SDS011;682;52.502;13.488;2022-10-31T02:54:26;35.10;;;29.40;;
1376;SDS011;682;52.502;13.488;2022-10-31T02:56:56;32.43;;;29.00;;
1376;SDS011;682;52.502;13.488;2022-10-31T02:59:36;32.73;;;28.60;;
1376;SDS011;682;52.502;13.488;2022-10-31T03:05:43;33.47;;;29.90;;
1376;SDS011;682;52.502;13.488;2022-10-31T03:08:23;37.00;;;31.77;;
1376;SDS011;682;52.502;13.488;2022-10-31T03:11:01;33.67;;;29.13;;
1376;SDS011;682;52.502;13.488;2022-10-31T03:13:45;37.73;;;30.40;;
1376;SDS011;682;52.502;13.488;2022-10-31T03:16:18;31.00;;;27.53;;
1376;SDS011;682;52.502;13.488;2022-10-31T03:19:03;32.93;;;29.40;;
1376;SDS011;682;52.502;13.488;2022-10-31T03:21:43;36.00;;;29.60;;
1376;SDS011;682;52.502;13.488;2022-10-31T03:24:20;34.70;;;28.37;;
1376;SDS011;682;52.502;13.488;2022-10-31T03:27:01;32.63;;;26.57;;
1376;SDS011;682;52.502;13.488;2022-10-31T03:29:52;30.90;;;27.50;;
1376;SDS011;682;52.502;13.488;2022-10-31T03:32:32;36.13;;;28.33;;
1376;SDS011;682;52.502;13.488;2022-10-31T03:35:10;33.60;;;26.87;;
1376;SDS011;682;52.502;13.488;2022-10-31T03:37:43;36.13;;;27.17;;
1376;SDS011;682;52.502;13.488;2022-10-31T03:40:21;32.87;;;27.60;;
1376;SDS011;682;52.502;13.488;2022-10-31T03:43:07;32.20;;;26.33;;
1376;SDS011;682;52.502;13.488;2022-10-31T03:45:47;34.83;;;27.87;;
1376;SDS011;682;52.502;13.488;2022-10-31T03:48:21;31.67;;;25.57;;
1376;SDS011;682;52.502;13.488;2022-10-31T03:50:52;33.17;;;26.20;;
1376;SDS011;682;52.502;13.488;2022-10-31T03:53:30;32.17;;;26.57;;
1376;SDS011;682;52.502;13.488;2022-10-31T03:56:02;31.50;;;26.03;;
1376;SDS011;682;52.502;13.488;2022-10-31T03:58:38;30.57;;;27.27;;
1376;SDS011;682;52.502;13.488;2022-10-31T04:01:19;30.87;;;26.43;;
1376;SDS011;682;52.502;13.488;2022-10-31T04:03:50;33.77;;;28.13;;
1376;SDS011;682;52.502;13.488;2022-10-31T04:06:29;34.67;;;27.97;;
1376;SDS011;682;52.502;13.488;2022-10-31T04:09:00;31.53;;;28.13;;
1376;SDS011;682;52.502;13.488;2022-10-31T04:11:30;27.63;;;24.67;;
1376;SDS011;682;52.502;13.488;2022-10-31T04:14:08;32.10;;;24.90;;
1376;SDS011;682;52.502;13.488;2022-10-31T04:16:39;30.47;;;23.70;;
1376;SDS011;682;52.502;13.488;2022-10-31T04:19:09;31.53;;;26.67;;
1376;SDS011;682;52.502;13.488;2022-10-31T04:21:37;33.27;;;24.87;;
1376;SDS011;682;52.502;13.488;2022-10-31T04:24:12;34.33;;;25.60;;
1376;SDS011;682;52.502;13.488;2022-10-31T04:26:39;32.43;;;26.23;;
1376;SDS011;682;52.502;13.488;2022-10-31T04:29:11;32.83;;;26.20;;
1376;SDS011;682;52.502;13.488;2022-10-31T04:31:41;31.43;;;25.10;;
1376;SDS011;682;52.502;13.488;2022-10-31T04:34:09;33.23;;;25.03;;
1376;SDS011;682;52.502;13.488;2022-10-31T04:36:39;32.13;;;22.83;;
1376;SDS011;682;52.502;13.488;2022-10-31T04:39:07;36.63;;;25.33;;
1376;SDS011;682;52.502;13.488;2022-10-31T04:41:41;31.10;;;24.90;;
1376;SDS011;682;52.502;13.488;2022-10-31T04:44:11;40.37;;;26.37;;
1376;SDS011;682;52.502;13.488;2022-10-31T04:46:39;30.90;;;25.13;;
1376;SDS011;682;52.502;13.488;2022-10-31T04:49:10;33.77;;;23.43;;
1376;SDS011;682;52.502;13.488;2022-10-31T04:51:41;34.30;;;24.80;;
1376;SDS011;682;52.502;13.488;2022-10-31T04:54:10;32.70;;;24.20;;
1376;SDS011;682;52.502;13.488;2022-10-31T04:56:41;28.93;;;22.87;;
1376;SDS011;682;52.502;13.488;2022-10-31T04:59:08;35.70;;;23.27;;
1376;SDS011;682;52.502;13.488;2022-10-31T05:01:41;31.33;;;25.73;;
1376;SDS011;682;52.502;13.488;2022-10-31T05:04:12;29.53;;;23.67;;
1376;SDS011;682;52.502;13.488;2022-10-31T05:06:42;29.63;;;22.30;;
1376;SDS011;682;52.502;13.488;2022-10-31T05:09:14;30.20;;;22.57;;
1376;SDS011;682;52.502;13.488;2022-10-31T05:11:53;28.60;;;21.50;;
1376;SDS011;682;52.502;13.488;2022-10-31T05:14:22;29.67;;;22.50;;
1376;SDS011;682;52.502;13.488;2022-10-31T05:16:52;28.27;;;21.83;;
1376;SDS011;682;52.502;13.488;2022-10-31T05:19:22;27.00;;;20.57;;
1376;SDS011;682;52.502;13.488;2022-10-31T05:21:53;29.77;;;23.17;;
1376;SDS011;682;52.502;13.488;2022-10-31T05:24:25;27.20;;;20.63;;
1376;SDS011;682;52.502;13.488;2022-10-31T05:27:02;25.83;;;20.77;;
1376;SDS011;682;52.502;13.488;2022-10-31T05:29:34;27.20;;;20.90;;
1376;SDS011;682;52.502;13.488;2022-10-31T05:32:35;32.30;;;20.87;;
1376;SDS011;682;52.502;13.488;2022-10-31T05:35:32;28.43;;;21.27;;
1376;SDS011;682;52.502;13.488;2022-10-31T05:37:59;27.13;;;21.07;;
1376;SDS011;682;52.502;13.488;2022-10-31T05:40:35;34.07;;;23.90;;
1376;SDS011;682;52.502;13.488;2022-10-31T05:43:03;32.33;;;21.77;;
1376;SDS011;682;52.502;13.488;2022-10-31T05:45:35;35.43;;;22.90;;
1376;SDS011;682;52.502;13.488;2022-10-31T05:48:07;25.87;;;19.97;;
1376;SDS011;682;52.502;13.488;2022-10-31T05:50:43;29.00;;;20.43;;
1376;SDS011;682;52.502;13.488;2022-10-31T05:53:12;27.17;;;21.37;;
1376;SDS011;682;52.502;13.488;2022-10-31T05:55:42;28.47;;;21.67;;
1376;SDS011;682;52.502;13.488;2022-10-31T05:58:11;26.93;;;21.43;;
1376;SDS011;682;52.502;13.488;2022-10-31T06:00:41;28.53;;;21.50;;
1376;SDS011;682;52.502;13.488;2022-10-31T06:03:09;29.33;;;20.93;;
1376;SDS011;682;52.502;13.488;2022-10-31T06:05:41;30.97;;;20.57;;
1376;SDS011;682;52.502;13.488;2022-10-31T06:13:54;30.00;;;23.20;;
1376;SDS011;682;52.502;13.488;2022-10-31T06:16:22;32.17;;;21.00;;
1376;SDS011;682;52.502;13.488;2022-10-31T06:18:52;26.13;;;19.90;;
1376;SDS011;682;52.502;13.488;2022-10-31T06:21:22;28.03;;;20.77;;
1376;SDS011;682;52.502;13.488;2022-10-31T06:23:54;29.97;;;20.67;;
1376;SDS011;682;52.502;13.488;2022-10-31T06:26:23;29.73;;;21.20;;
1376;SDS011;682;52.502;13.488;2022-10-31T06:28:51;23.53;;;20.27;;
1376;SDS011;682;52.502;13.488;2022-10-31T06:31:32;29.63;;;21.60;;
1376;SDS011;682;52.502;13.488;2022-10-31T06:34:03;30.13;;;19.67;;
1376;SDS011;682;52.502;13.488;2022-10-31T06:36:33;28.37;;;21.73;;
1376;SDS011;682;52.502;13.488;2022-10-31T06:39:02;24.87;;;20.50;;
1376;SDS011;682;52.502;13.488;2022-10-31T06:41:34;26.73;;;21.03;;
1376;SDS011;682;52.502;13.488;2022-10-31T06:44:13;32.00;;;22.07;;
1376;SDS011;682;52.502;13.488;2022-10-31T06:46:45;27.13;;;21.30;;
1376;SDS011;682;52.502;13.488;2022-10-31T06:49:23;30.60;;;22.00;;
1376;SDS011;682;52.502;13.488;2022-10-31T06:51:53;25.67;;;20.20;;
1376;SDS011;682;52.502;13.488;2022-10-31T06:54:23;29.83;;;20.17;;
1376;SDS011;682;52.502;13.488;2022-10-31T06:59:45;29.90;;;22.17;;
1376;SDS011;682;52.502;13.488;2022-10-31T07:02:23;31.30;;;24.47;;
1376;SDS011;682;52.502;13.488;2022-10-31T07:04:50;27.63;;;23.27;;
1376;SDS011;682;52.502;13.488;2022-10-31T07:07:19;30.50;;;25.63;;
1376;SDS011;682;52.502;13.488;2022-10-31T07:09:50;33.60;;;25.20;;
1376;SDS011;682;52.502;13.488;2022-10-31T07:12:22;32.57;;;26.40;;
1376;SDS011;682;52.502;13.488;2022-10-31T07:14:54;33.37;;;24.87;;
1376;SDS011;682;52.502;13.488;2022-10-31T07:17:24;29.93;;;24.10;;
1376;SDS011;682;52.502;13.488;2022-10-31T07:19:55;30.70;;;24.40;;
1376;SDS011;682;52.502;13.488;2022-10-31T07:22:24;30.63;;;25.30;;
1376;SDS011;682;52.502;13.488;2022-10-31T07:25:05;35.90;;;26.70;;
1376;SDS011;682;52.502;13.488;2022-10-31T07:27:42;36.97;;;26.67;;
1376;SDS011;682;52.502;13.488;2022-10-31T07:30:14;35.00;;;26.40;;
1376;SDS011;682;52.502;13.488;2022-10-31T07:32:43;41.40;;;29.37;;
1376;SDS011;682;52.502;13.488;2022-10-31T07:35:13;40.80;;;31.73;;
1376;SDS011;682;52.502;13.488;2022-10-31T07:37:42;37.63;;;32.80;;
1376;SDS011;682;52.502;13.488;2022-10-31T07:40:10;33.70;;;28.50;;
1376;SDS011;682;52.502;13.488;2022-10-31T07:42:45;33.70;;;28.90;;
1376;SDS011;682;52.502;13.488;2022-10-31T07:45:14;34.90;;;28.37;;
1376;SDS011;682;52.502;13.488;2022-10-31T07:47:50;33.20;;;27.90;;
1376;SDS011;682;52.502;13.488;2022-10-31T07:50:28;36.63;;;27.77;;
1376;SDS011;682;52.502;13.488;2022-10-31T07:52:58;34.53;;;28.20;;
1376;SDS011;682;52.502;13.488;2022-10-31T07:55:27;37.23;;;27.33;;
1376;SDS011;682;52.502;13.488;2022-10-31T07:57:58;35.23;;;28.13;;
1376;SDS011;682;52.502;13.488;2022-10-31T08:00:31;32.50;;;26.83;;
1376;SDS011;682;52.502;13.488;2022-10-31T08:03:08;29.50;;;24.03;;
1376;SDS011;682;52.502;13.488;2022-10-31T08:05:38;36.00;;;25.20;;
1376;SDS011;682;52.502;13.488;2022-10-31T08:08:07;30.53;;;24.40;;
1376;SDS011;682;52.502;13.488;2022-10-31T08:10:39;33.70;;;25.67;;
1376;SDS011;682;52.502;13.488;2022-10-31T08:13:08;31.03;;;23.77;;
1376;SDS011;682;52.502;13.488;2022-10-31T08:15:40;32.13;;;24.10;;
1376;SDS011;682;52.502;13.488;2022-10-31T08:18:18;45.30;;;37.17;;
1376;SDS011;682;52.502;13.488;2022-10-31T08:20:47;31.67;;;24.13;;
1376;SDS011;682;52.502;13.488;2022-10-31T08:23:17;32.97;;;25.67;;
1376;SDS011;682;52.502;13.488;2022-10-31T08:25:44;34.23;;;25.40;;
1376;SDS011;682;52.502;13.488;2022-10-31T08:28:19;37.40;;;23.93;;
1376;SDS011;682;52.502;13.488;2022-10-31T08:30:47;30.50;;;22.40;;
1376;SDS011;682;52.502;13.488;2022-10-31T08:33:19;30.40;;;21.70;;
1376;SDS011;682;52.502;13.488;2022-10-31T08:35:46;31.07;;;21.13;;
1376;SDS011;682;52.502;13.488;2022-10-31T08:38:13;33.50;;;22.17;;
1376;SDS011;682;52.502;13.488;2022-10-31T08:40:47;27.23;;;21.97;;
1376;SDS011;682;52.502;13.488;2022-10-31T08:43:17;29.10;;;21.83;;
1376;SDS011;682;52.502;13.488;2022-10-31T08:45:48;24.70;;;20.40;;
1376;SDS011;682;52.502;13.488;2022-10-31T08:48:18;26.50;;;21.63;;
1376;SDS011;682;52.502;13.488;2022-10-31T08:50:49;33.43;;;21.73;;
1376;SDS011;682;52.502;13.488;2022-10-31T08:53:19;30.80;;;21.97;;
1376;SDS011;682;52.502;13.488;2022-10-31T08:55:50;27.90;;;21.27;;
1376;SDS011;682;52.502;13.488;2022-10-31T08:58:19;29.67;;;21.53;;
1376;SDS011;682;52.502;13.488;2022-10-31T09:00:48;33.90;;;21.43;;
1376;SDS011;682;52.502;13.488;2022-10-31T09:03:21;28.27;;;20.07;;
1376;SDS011;682;52.502;13.488;2022-10-31T09:06:00;24.83;;;20.90;;
1376;SDS011;682;52.502;13.488;2022-10-31T09:08:40;27.97;;;21.63;;
1376;SDS011;682;52.502;13.488;2022-10-31T09:11:09;29.83;;;21.87;;
1376;SDS011;682;52.502;13.488;2022-10-31T09:13:38;35.17;;;22.67;;
1376;SDS011;682;52.502;13.488;2022-10-31T09:16:09;26.07;;;19.40;;
1376;SDS011;682;52.502;13.488;2022-10-31T09:18:51;26.70;;;20.33;;
1376;SDS011;682;52.502;13.488;2022-10-31T09:21:30;28.10;;;20.10;;
1376;SDS011;682;52.502;13.488;2022-10-31T09:23:58;31.27;;;20.47;;
1376;SDS011;682;52.502;13.488;2022-10-31T09:26:30;28.97;;;21.73;;
1376;SDS011;682;52.502;13.488;2022-10-31T09:29:08;34.70;;;23.70;;
1376;SDS011;682;52.502;13.488;2022-10-31T09:31:40;28.77;;;21.87;;
1376;SDS011;682;52.502;13.488;2022-10-31T09:34:08;36.77;;;32.97;;
1376;SDS011;682;52.502;13.488;2022-10-31T09:36:38;27.30;;;24.13;;
1376;SDS011;682;52.502;13.488;2022-10-31T09:39:07;30.67;;;23.70;;
1376;SDS011;682;52.502;13.488;2022-10-31T09:41:40;30.00;;;23.07;;
1376;SDS011;682;52.502;13.488;2022-10-31T09:44:26;26.80;;;22.03;;
1376;SDS011;682;52.502;13.488;2022-10-31T09:47:15;32.23;;;24.80;;
1376;SDS011;682;52.502;13.488;2022-10-31T09:49:53;31.80;;;23.33;;
1376;SDS011;682;52.502;13.488;2022-10-31T09:52:34;30.90;;;23.77;;
1376;SDS011;682;52.502;13.488;2022-10-31T09:55:13;31.67;;;24.03;;
1376;SDS011;682;52.502;13.488;2022-10-31T09:57:51;34.97;;;24.97;;
1376;SDS011;682;52.502;13.488;2022-10-31T10:00:22;30.83;;;25.27;;
1376;SDS011;682;52.502;13.488;2022-10-31T10:02:51;27.80;;;24.23;;
1376;SDS011;682;52.502;13.488;2022-10-31T10:05:30;30.70;;;24.67;;
1376;SDS011;682;52.502;13.488;2022-10-31T10:08:16;32.97;;;26.47;;
1376;SDS011;682;52.502;13.488;2022-10-31T10:11:02;36.20;;;28.90;;
1376;SDS011;682;52.502;13.488;2022-10-31T10:14:03;36.73;;;29.67;;
1376;SDS011;682;52.502;13.488;2022-10-31T10:16:44;36.53;;;29.43;;
1376;SDS011;682;52.502;13.488;2022-10-31T10:19:33;35.90;;;28.33;;
1376;SDS011;682;52.502;13.488;2022-10-31T10:22:22;41.60;;;30.27;;
1376;SDS011;682;52.502;13.488;2022-10-31T10:25:03;38.20;;;29.37;;
1376;SDS011;682;52.502;13.488;2022-10-31T10:27:55;33.80;;;27.90;;
1376;SDS011;682;52.502;13.488;2022-10-31T10:30:33;33.23;;;27.70;;
1376;SDS011;682;52.502;13.488;2022-10-31T10:33:15;36.30;;;30.20;;
1376;SDS011;682;52.502;13.488;2022-10-31T10:36:04;35.53;;;28.33;;
1376;SDS011;682;52.502;13.488;2022-10-31T10:38:39;33.27;;;27.90;;
1376;SDS011;682;52.502;13.488;2022-10-31T10:41:16;41.40;;;29.50;;
1376;SDS011;682;52.502;13.488;2022-10-31T10:43:44;40.67;;;30.27;;
1376;SDS011;682;52.502;13.488;2022-10-31T10:46:18;37.50;;;29.43;;
1376;SDS011;682;52.502;13.488;2022-10-31T10:49:13;34.67;;;27.63;;
1376;SDS011;682;52.502;13.488;2022-10-31T10:52:03;37.03;;;28.27;;
1376;SDS011;682;52.502;13.488;2022-10-31T10:54:53;41.70;;;28.97;;
1376;SDS011;682;52.502;13.488;2022-10-31T10:57:41;35.57;;;27.20;;
1376;SDS011;682;52.502;13.488;2022-10-31T11:00:22;33.73;;;25.77;;
1376;SDS011;682;52.502;13.488;2022-10-31T11:02:51;32.87;;;25.80;;
1376;SDS011;682;52.502;13.488;2022-10-31T11:05:22;31.10;;;26.47;;
1376;SDS011;682;52.502;13.488;2022-10-31T11:08:00;33.63;;;26.67;;
1376;SDS011;682;52.502;13.488;2022-10-31T11:10:27;29.27;;;25.00;;
1376;SDS011;682;52.502;13.488;2022-10-31T11:13:14;31.50;;;26.60;;
1376;SDS011;682;52.502;13.488;2022-10-31T11:15:55;30.20;;;22.67;;
1376;SDS011;682;52.502;13.488;2022-10-31T11:18:37;28.43;;;23.00;;
1376;SDS011;682;52.502;13.488;2022-10-31T11:21:28;27.90;;;25.00;;
1376;SDS011;682;52.502;13.488;2022-10-31T11:24:18;31.50;;;25.07;;
1376;SDS011;682;52.502;13.488;2022-10-31T11:27:02;30.70;;;24.30;;
1376;SDS011;682;52.502;13.488;2022-10-31T11:29:38;32.40;;;25.57;;
1376;SDS011;682;52.502;13.488;2022-10-31T11:32:16;33.93;;;25.17;;
1376;SDS011;682;52.502;13.488;2022-10-31T11:34:46;33.63;;;24.70;;
1376;SDS011;682;52.502;13.488;2022-10-31T11:37:18;33.90;;;24.97;;
1376;SDS011;682;52.502;13.488;2022-10-31T11:39:55;32.70;;;26.60;;
1376;SDS011;682;52.502;13.488;2022-10-31T11:42:27;32.33;;;24.63;;
1376;SDS011;682;52.502;13.488;2022-10-31T11:44:56;32.37;;;26.10;;
1376;SDS011;682;52.502;13.488;2022-10-31T11:47:35;31.10;;;25.30;;
1376;SDS011;682;52.502;13.488;2022-10-31T11:50:09;30.20;;;25.33;;
1376;SDS011;682;52.502;13.488;2022-10-31T11:52:52;33.07;;;23.87;;
1376;SDS011;682;52.502;13.488;2022-10-31T11:55:34;34.93;;;23.70;;
1376;SDS011;682;52.502;13.488;2022-10-31T11:58:04;29.53;;;24.33;;
1376;SDS011;682;52.502;13.488;2022-10-31T12:00:52;33.80;;;26.27;;
1376;SDS011;682;52.502;13.488;2022-10-31T12:03:33;29.20;;;24.47;;
1376;SDS011;682;52.502;13.488;2022-10-31T12:06:24;28.87;;;24.27;;
1376;SDS011;682;52.502;13.488;2022-10-31T12:09:09;32.40;;;25.67;;
1376;SDS011;682;52.502;13.488;2022-10-31T12:14:54;34.00;;;24.43;;
1376;SDS011;682;52.502;13.488;2022-10-31T12:17:38;29.50;;;25.03;;
1376;SDS011;682;52.502;13.488;2022-10-31T12:20:12;29.53;;;24.13;;
1376;SDS011;682;52.502;13.488;2022-10-31T12:23:05;28.70;;;24.43;;
1376;SDS011;682;52.502;13.488;2022-10-31T12:25:59;31.13;;;24.77;;
1376;SDS011;682;52.502;13.488;2022-10-31T12:28:47;29.77;;;25.83;;
1376;SDS011;682;52.502;13.488;2022-10-31T12:31:35;29.57;;;26.23;;
1376;SDS011;682;52.502;13.488;2022-10-31T12:37:23;30.33;;;27.20;;
1376;SDS011;682;52.502;13.488;2022-10-31T12:40:10;37.90;;;29.93;;
1376;SDS011;682;52.502;13.488;2022-10-31T12:42:55;33.30;;;26.50;;
1376;SDS011;682;52.502;13.488;2022-10-31T12:45:52;36.90;;;26.90;;
1376;SDS011;682;52.502;13.488;2022-10-31T12:48:34;34.53;;;26.33;;
1376;SDS011;682;52.502;13.488;2022-10-31T12:51:28;34.90;;;26.80;;
1376;SDS011;682;52.502;13.488;2022-10-31T12:54:19;30.17;;;25.40;;
1376;SDS011;682;52.502;13.488;2022-10-31T12:56:59;34.80;;;25.87;;
1376;SDS011;682;52.502;13.488;2022-10-31T12:59:32;32.57;;;26.50;;
1376;SDS011;682;52.502;13.488;2022-10-31T13:02:10;33.17;;;26.70;;
1376;SDS011;682;52.502;13.488;2022-10-31T13:04:47;32.87;;;27.03;;
1376;SDS011;682;52.502;13.488;2022-10-31T13:07:29;31.13;;;26.23;;
1376;SDS011;682;52.502;13.488;2022-10-31T13:10:05;29.23;;;25.60;;
1376;SDS011;682;52.502;13.488;2022-10-31T13:12:44;28.80;;;24.10;;
1376;SDS011;682;52.502;13.488;2022-10-31T13:15:15;31.03;;;25.30;;
1376;SDS011;682;52.502;13.488;2022-10-31T13:17:47;34.27;;;26.43;;
1376;SDS011;682;52.502;13.488;2022-10-31T13:20:20;31.93;;;26.03;;
1376;SDS011;682;52.502;13.488;2022-10-31T13:23:00;33.83;;;27.00;;
1376;SDS011;682;52.502;13.488;2022-10-31T13:25:37;33.60;;;27.67;;
1376;SDS011;682;52.502;13.488;2022-10-31T13:28:21;36.10;;;26.03;;
1376;SDS011;682;52.502;13.488;2022-10-31T13:30:56;32.67;;;26.23;;
1376;SDS011;682;52.502;13.488;2022-10-31T13:33:28;34.63;;;26.47;;
1376;SDS011;682;52.502;13.488;2022-10-31T13:36:09;33.83;;;26.80;;
1376;SDS011;682;52.502;13.488;2022-10-31T13:38:48;33.07;;;27.77;;
1376;SDS011;682;52.502;13.488;2022-10-31T13:41:30;32.63;;;29.13;;
1376;SDS011;682;52.502;13.488;2022-10-31T13:44:10;34.17;;;27.00;;
1376;SDS011;682;52.502;13.488;2022-10-31T13:46:46;37.27;;;28.40;;
1376;SDS011;682;52.502;13.488;2022-10-31T13:49:35;34.63;;;26.50;;
1376;SDS011;682;52.502;13.488;2022-10-31T13:52:05;37.17;;;26.50;;
1376;SDS011;682;52.502;13.488;2022-10-31T13:54:49;40.03;;;30.37;;
1376;SDS011;682;52.502;13.488;2022-10-31T13:57:31;33.87;;;27.20;;
1376;SDS011;682;52.502;13.488;2022-10-31T14:00:06;32.73;;;26.60;;
1376;SDS011;682;52.502;13.488;2022-10-31T14:02:52;32.80;;;27.00;;
1376;SDS011;682;52.502;13.488;2022-10-31T14:05:35;36.27;;;27.17;;
1376;SDS011;682;52.502;13.488;2022-10-31T14:08:04;31.93;;;26.60;;
1376;SDS011;682;52.502;13.488;2022-10-31T14:10:33;37.30;;;26.93;;
1376;SDS011;682;52.502;13.488;2022-10-31T14:13:06;35.10;;;28.50;;
1376;SDS011;682;52.502;13.488;2022-10-31T14:15:36;38.00;;;28.97;;
1376;SDS011;682;52.502;13.488;2022-10-31T14:18:17;35.87;;;25.80;;
1376;SDS011;682;52.502;13.488;2022-10-31T14:20:56;33.07;;;28.37;;
1376;SDS011;682;52.502;13.488;2022-10-31T14:23:37;41.13;;;30.37;;
1376;SDS011;682;52.502;13.488;2022-10-31T14:26:18;36.97;;;29.80;;
1376;SDS011;682;52.502;13.488;2022-10-31T14:28:56;37.47;;;28.90;;
1376;SDS011;682;52.502;13.488;2022-10-31T14:31:38;33.97;;;28.00;;
1376;SDS011;682;52.502;13.488;2022-10-31T14:34:18;38.80;;;29.23;;
1376;SDS011;682;52.502;13.488;2022-10-31T14:37:07;35.67;;;29.50;;
1376;SDS011;682;52.502;13.488;2022-10-31T14:40:27;35.80;;;26.90;;
1376;SDS011;682;52.502;13.488;2022-10-31T14:43:27;32.47;;;26.23;;
1376;SDS011;682;52.502;13.488;2022-10-31T14:46:17;38.23;;;30.17;;
1376;SDS011;682;52.502;13.488;2022-10-31T14:48:57;34.70;;;29.70;;
1376;SDS011;682;52.502;13.488;2022-10-31T14:51:48;39.83;;;30.30;;
1376;SDS011;682;52.502;13.488;2022-10-31T14:54:27;36.37;;;28.27;;
1376;SDS011;682;52.502;13.488;2022-10-31T14:57:05;36.27;;;29.27;;
1376;SDS011;682;52.502;13.488;2022-10-31T14:59:46;38.20;;;28.57;;
1376;SDS011;682;52.502;13.488;2022-10-31T15:02:26;37.57;;;28.67;;
1376;SDS011;682;52.502;13.488;2022-10-31T15:05:06;37.13;;;30.00;;
1376;SDS011;682;52.502;13.488;2022-10-31T15:07:36;38.10;;;30.40;;
1376;SDS011;682;52.502;13.488;2022-10-31T15:10:18;37.73;;;31.43;;
1376;SDS011;682;52.502;13.488;2022-10-31T15:13:08;37.87;;;29.43;;
1376;SDS011;682;52.502;13.488;2022-10-31T15:15:44;37.40;;;32.37;;
1376;SDS011;682;52.502;13.488;2022-10-31T15:18:17;36.80;;;29.97;;
1376;SDS011;682;52.502;13.488;2022-10-31T15:20:55;44.57;;;31.87;;
1376;SDS011;682;52.502;13.488;2022-10-31T15:23:23;39.20;;;31.77;;
1376;SDS011;682;52.502;13.488;2022-10-31T15:25:59;43.43;;;33.80;;
1376;SDS011;682;52.502;13.488;2022-10-31T15:28:34;42.83;;;32.93;;
1376;SDS011;682;52.502;13.488;2022-10-31T15:31:05;41.30;;;33.00;;
1376;SDS011;682;52.502;13.488;2022-10-31T15:33:46;43.20;;;33.93;;
1376;SDS011;682;52.502;13.488;2022-10-31T15:36:26;45.47;;;34.00;;
1376;SDS011;682;52.502;13.488;2022-10-31T15:38:57;42.37;;;31.23;;
1376;SDS011;682;52.502;13.488;2022-10-31T15:41:43;47.23;;;35.10;;
1376;SDS011;682;52.502;13.488;2022-10-31T15:44:26;48.33;;;34.67;;
1376;SDS011;682;52.502;13.488;2022-10-31T15:46:57;45.63;;;34.27;;
1376;SDS011;682;52.502;13.488;2022-10-31T15:49:38;45.87;;;35.70;;
1376;SDS011;682;52.502;13.488;2022-10-31T15:52:15;48.43;;;33.40;;
1376;SDS011;682;52.502;13.488;2022-10-31T15:54:52;45.73;;;36.60;;
1376;SDS011;682;52.502;13.488;2022-10-31T15:57:24;41.63;;;31.10;;
1376;SDS011;682;52.502;13.488;2022-10-31T15:59:55;43.63;;;34.43;;
1376;SDS011;682;52.502;13.488;2022-10-31T16:02:26;47.20;;;34.50;;
1376;SDS011;682;52.502;13.488;2022-10-31T16:04:57;45.40;;;35.00;;
1376;SDS011;682;52.502;13.488;2022-10-31T16:07:37;45.20;;;35.60;;
1376;SDS011;682;52.502;13.488;2022-10-31T16:10:25;55.80;;;44.33;;
1376;SDS011;682;52.502;13.488;2022-10-31T16:12:57;43.73;;;34.70;;
1376;SDS011;682;52.502;13.488;2022-10-31T16:15:23;46.60;;;36.67;;
1376;SDS011;682;52.502;13.488;2022-10-31T16:17:55;43.17;;;34.37;;
1376;SDS011;682;52.502;13.488;2022-10-31T16:20:26;45.20;;;34.80;;